Hauptseite
METAR-TAF:

METAR-TAF

Flughäfen :

Tongatapu, Tonga

Flughafen Fuaʻamotu

Breite: 21-14S, Länge: 175-09W, Höhe: 38 m

Beobachtung

Neuester Wetterbericht von vor 15 Minuten, um 12:00 UTC
Windstille
Temperatur 24°C
Luftfeuchtigkeit 83%
Luftdruck 1015 hPa
Sichtweite 10 km oder mehr
Leicht bewölkt in der Höhe von 1600 ft

METAR: NFTF 281200Z 00000KT 9999 FEW016 24/21 Q1015

Zeit: 01:15 (12:15 UTC)

Prognose

Neuester Wetterbericht von vor 1 Stunde und 13 Minuten, um 11:02 UTC
Gültige Prognose vom 28 um 12 UTC bis 29 um 12 UTC
Wind 3 kt aus unterschiedlichen Richtungen
Sichtweite 10 km oder mehr
Leicht bewölkt in der Höhe von 1700 ft
Übergehend zu
vom 28 um 21 UTC bis 28 um 23 UTC
Wind 13 kt aus Süd/Südost
Übergehend zu
vom 29 um 04 UTC bis 29 um 06 UTC
Wind 3 kt aus unterschiedlichen Richtungen

TAF: NFTF 281102Z 2812/2912 VRB03KT 9999 FEW017 BECMG 2821/2823 15013KT BECMG 2904/2906 VRB03KT

Wetterbeobachtungen und Prognosen von mehr als 4000 Flughäfen (METAR und TAF Bericht).

Die verfügbaren Stationen werden durch gelbe und rote Markierungen auf der Karte dargestellt.

Führen Sie die Maus auf sie, um den Namen der Station zu sehen.

Darauf klicken, um die Beobachtung von Wetterbeobachtungen und Prognosen zu sehen.

Um die Karte zu ändern : klicken Sie auf den grünen Tasten mit einem schwarzen Kreuz Zum Vergrößern, auf den grünen Button mit einem Gedankenstrich zu verkleinern, oder auf die grünen Pfeile für benachbarte Karten.


METAR-TAF: